sensor_id;sensor_type;location;lat;lon;timestamp;pressure;altitude;pressure_sealevel;temperature;humidity
63033;BME280;49121;38.932;-9.018;2023-04-15T00:01:52;111992.50;;;-145.11;77.47
63033;BME280;49121;38.932;-9.018;2023-04-15T00:03:53;111992.50;;;-145.11;77.50
63033;BME280;49121;38.932;-9.018;2023-04-15T00:05:54;111992.50;;;-145.11;77.56
63033;BME280;49121;38.932;-9.018;2023-04-15T00:07:54;111992.50;;;-145.11;77.51
63033;BME280;49121;38.932;-9.018;2023-04-15T00:09:55;111992.50;;;-145.11;77.02
63033;BME280;49121;38.932;-9.018;2023-04-15T00:11:59;111992.50;;;-145.11;76.94
63033;BME280;49121;38.932;-9.018;2023-04-15T00:14:01;111992.50;;;-145.11;77.28
63033;BME280;49121;38.932;-9.018;2023-04-15T00:16:01;111992.50;;;-145.11;77.15
63033;BME280;49121;38.932;-9.018;2023-04-15T00:18:02;111992.50;;;-145.11;76.94
63033;BME280;49121;38.932;-9.018;2023-04-15T00:20:03;111992.50;;;-145.11;76.43
63033;BME280;49121;38.932;-9.018;2023-04-15T00:22:09;111992.50;;;-145.11;76.46
63033;BME280;49121;38.932;-9.018;2023-04-15T00:24:10;111992.50;;;-145.11;76.61
63033;BME280;49121;38.932;-9.018;2023-04-15T00:26:11;111992.50;;;-145.11;76.26
63033;BME280;49121;38.932;-9.018;2023-04-15T00:28:12;111992.50;;;-145.11;76.50
63033;BME280;49121;38.932;-9.018;2023-04-15T00:30:13;111992.50;;;-145.11;75.33
63033;BME280;49121;38.932;-9.018;2023-04-15T00:32:13;111992.50;;;-145.11;74.58
63033;BME280;49121;38.932;-9.018;2023-04-15T00:34:15;111992.50;;;-145.11;74.88
63033;BME280;49121;38.932;-9.018;2023-04-15T00:36:16;111992.50;;;-145.11;74.20
63033;BME280;49121;38.932;-9.018;2023-04-15T00:38:17;111992.50;;;-145.11;74.78
63033;BME280;49121;38.932;-9.018;2023-04-15T00:44:55;111992.50;;;-145.11;73.95
63033;BME280;49121;38.932;-9.018;2023-04-15T00:46:56;111992.50;;;-145.11;74.30
63033;BME280;49121;38.932;-9.018;2023-04-15T00:48:57;111992.50;;;-145.11;74.68
63033;BME280;49121;38.932;-9.018;2023-04-15T00:50:58;111992.50;;;-145.11;74.86
63033;BME280;49121;38.932;-9.018;2023-04-15T00:53:01;111992.50;;;-145.11;75.08
63033;BME280;49121;38.932;-9.018;2023-04-15T00:55:01;111992.50;;;-145.11;75.05
63033;BME280;49121;38.932;-9.018;2023-04-15T00:57:04;111992.50;;;-145.11;74.78
63033;BME280;49121;38.932;-9.018;2023-04-15T00:59:06;111992.50;;;-145.11;74.53
63033;BME280;49121;38.932;-9.018;2023-04-15T01:01:07;111992.50;;;-145.11;74.78
63033;BME280;49121;38.932;-9.018;2023-04-15T01:03:08;111992.50;;;-145.11;75.08
63033;BME280;49121;38.932;-9.018;2023-04-15T01:05:27;111992.50;;;-145.11;75.03
63033;BME280;49121;38.932;-9.018;2023-04-15T01:07:31;111992.50;;;-145.11;74.23
63033;BME280;49121;38.932;-9.018;2023-04-15T01:09:31;111992.50;;;-145.11;74.14
63033;BME280;49121;38.932;-9.018;2023-04-15T01:11:32;111992.50;;;-145.11;74.42
63033;BME280;49121;38.932;-9.018;2023-04-15T01:13:34;111992.50;;;-145.11;73.88
63033;BME280;49121;38.932;-9.018;2023-04-15T01:15:35;111992.50;;;-145.11;73.36
63033;BME280;49121;38.932;-9.018;2023-04-15T01:17:36;111992.50;;;-145.11;74.23
63033;BME280;49121;38.932;-9.018;2023-04-15T01:27:15;111992.50;;;-145.11;74.72
63033;BME280;49121;38.932;-9.018;2023-04-15T01:29:15;111992.50;;;-145.11;74.72
63033;BME280;49121;38.932;-9.018;2023-04-15T01:31:16;111992.50;;;-145.11;74.47
63033;BME280;49121;38.932;-9.018;2023-04-15T01:33:17;111992.50;;;-145.11;74.10
63033;BME280;49121;38.932;-9.018;2023-04-15T01:35:19;111992.50;;;-145.11;74.39
63033;BME280;49121;38.932;-9.018;2023-04-15T01:37:20;111992.50;;;-145.11;73.37
63033;BME280;49121;38.932;-9.018;2023-04-15T01:41:59;111992.50;;;-145.11;74.90
63033;BME280;49121;38.932;-9.018;2023-04-15T01:44:14;111992.50;;;-145.11;74.39
63033;BME280;49121;38.932;-9.018;2023-04-15T01:46:14;111992.50;;;-145.11;73.73
63033;BME280;49121;38.932;-9.018;2023-04-15T01:58:12;111992.50;;;-145.11;74.72
63033;BME280;49121;38.932;-9.018;2023-04-15T02:00:12;111992.50;;;-145.11;74.80
63033;BME280;49121;38.932;-9.018;2023-04-15T02:02:16;111992.50;;;-145.11;75.34
63033;BME280;49121;38.932;-9.018;2023-04-15T02:04:17;111992.50;;;-145.11;75.63
63033;BME280;49121;38.932;-9.018;2023-04-15T02:06:17;111992.50;;;-145.11;75.92
63033;BME280;49121;38.932;-9.018;2023-04-15T02:10:56;111992.50;;;-145.11;75.28
63033;BME280;49121;38.932;-9.018;2023-04-15T02:12:59;111992.50;;;-145.11;75.23
63033;BME280;49121;38.932;-9.018;2023-04-15T02:15:18;111992.50;;;-145.11;75.76
63033;BME280;49121;38.932;-9.018;2023-04-15T02:17:19;111992.50;;;-145.11;75.83
63033;BME280;49121;38.932;-9.018;2023-04-15T02:19:19;111992.50;;;-145.11;75.67
63033;BME280;49121;38.932;-9.018;2023-04-15T02:21:20;111992.50;;;-145.11;76.18
63033;BME280;49121;38.932;-9.018;2023-04-15T02:23:21;111992.50;;;-145.11;76.70
63033;BME280;49121;38.932;-9.018;2023-04-15T02:25:21;111992.50;;;-145.11;76.76
63033;BME280;49121;38.932;-9.018;2023-04-15T02:27:22;111992.50;;;-145.11;77.49
63033;BME280;49121;38.932;-9.018;2023-04-15T02:29:23;111992.50;;;-145.11;77.78
63033;BME280;49121;38.932;-9.018;2023-04-15T02:31:24;111992.50;;;-145.11;77.84
63033;BME280;49121;38.932;-9.018;2023-04-15T02:33:25;111992.50;;;-145.11;77.54
63033;BME280;49121;38.932;-9.018;2023-04-15T02:35:26;111992.50;;;-145.11;77.81
63033;BME280;49121;38.932;-9.018;2023-04-15T02:39:46;111992.50;;;-145.11;78.44
63033;BME280;49121;38.932;-9.018;2023-04-15T02:42:05;111992.50;;;-145.11;78.90
63033;BME280;49121;38.932;-9.018;2023-04-15T02:44:10;111992.50;;;-145.11;79.21
63033;BME280;49121;38.932;-9.018;2023-04-15T02:46:30;111992.50;;;-145.11;79.35
63033;BME280;49121;38.932;-9.018;2023-04-15T02:48:31;111992.50;;;-145.11;79.35
63033;BME280;49121;38.932;-9.018;2023-04-15T02:50:32;111992.50;;;-145.11;79.70
63033;BME280;49121;38.932;-9.018;2023-04-15T02:52:32;111992.50;;;-145.11;79.99
63033;BME280;49121;38.932;-9.018;2023-04-15T02:54:33;111992.50;;;-145.11;79.37
63033;BME280;49121;38.932;-9.018;2023-04-15T02:56:33;111992.50;;;-145.11;79.20
63033;BME280;49121;38.932;-9.018;2023-04-15T02:58:38;111992.50;;;-145.11;78.69
63033;BME280;49121;38.932;-9.018;2023-04-15T03:00:38;111992.50;;;-145.11;79.02
63033;BME280;49121;38.932;-9.018;2023-04-15T03:02:39;111992.50;;;-145.11;79.08
63033;BME280;49121;38.932;-9.018;2023-04-15T03:04:41;111992.50;;;-145.11;79.24
63033;BME280;49121;38.932;-9.018;2023-04-15T03:06:41;111992.50;;;-145.11;79.51
63033;BME280;49121;38.932;-9.018;2023-04-15T03:08:43;111992.50;;;-145.11;78.96
63033;BME280;49121;38.932;-9.018;2023-04-15T03:11:03;111992.50;;;-145.11;79.12
63033;BME280;49121;38.932;-9.018;2023-04-15T03:13:03;111992.50;;;-145.11;79.29
63033;BME280;49121;38.932;-9.018;2023-04-15T03:15:04;111992.50;;;-145.11;79.53
63033;BME280;49121;38.932;-9.018;2023-04-15T03:17:10;111992.50;;;-145.11;79.34
63033;BME280;49121;38.932;-9.018;2023-04-15T03:19:12;111992.50;;;-145.11;79.92
63033;BME280;49121;38.932;-9.018;2023-04-15T03:21:31;111992.50;;;-145.11;79.95
63033;BME280;49121;38.932;-9.018;2023-04-15T03:23:31;111992.50;;;-145.11;79.94
63033;BME280;49121;38.932;-9.018;2023-04-15T03:25:32;111992.50;;;-145.11;80.36
63033;BME280;49121;38.932;-9.018;2023-04-15T03:27:33;111992.50;;;-145.11;80.64
63033;BME280;49121;38.932;-9.018;2023-04-15T03:29:36;111992.50;;;-145.11;81.41
63033;BME280;49121;38.932;-9.018;2023-04-15T03:33:56;111992.50;;;-145.11;81.69
63033;BME280;49121;38.932;-9.018;2023-04-15T03:35:57;111992.50;;;-145.11;81.56
63033;BME280;49121;38.932;-9.018;2023-04-15T03:37:57;111992.50;;;-145.11;81.16
63033;BME280;49121;38.932;-9.018;2023-04-15T03:39:58;111992.50;;;-145.11;80.85
63033;BME280;49121;38.932;-9.018;2023-04-15T03:41:58;111992.50;;;-145.11;80.66
63033;BME280;49121;38.932;-9.018;2023-04-15T03:44:04;111992.50;;;-145.11;81.44
63033;BME280;49121;38.932;-9.018;2023-04-15T03:46:05;111992.50;;;-145.11;81.72
63033;BME280;49121;38.932;-9.018;2023-04-15T03:48:05;111992.50;;;-145.11;81.90
63033;BME280;49121;38.932;-9.018;2023-04-15T03:50:06;111992.50;;;-145.11;82.15
63033;BME280;49121;38.932;-9.018;2023-04-15T03:52:07;111992.50;;;-145.11;81.83
63033;BME280;49121;38.932;-9.018;2023-04-15T03:54:07;111992.50;;;-145.11;81.89
63033;BME280;49121;38.932;-9.018;2023-04-15T03:56:08;111992.50;;;-145.11;81.95
63033;BME280;49121;38.932;-9.018;2023-04-15T04:00:28;111992.50;;;-145.11;81.87
63033;BME280;49121;38.932;-9.018;2023-04-15T04:02:28;111992.50;;;-145.11;81.68
63033;BME280;49121;38.932;-9.018;2023-04-15T04:04:38;111992.50;;;-145.11;81.51
63033;BME280;49121;38.932;-9.018;2023-04-15T04:06:38;111992.50;;;-145.11;81.60
63033;BME280;49121;38.932;-9.018;2023-04-15T04:08:39;111992.50;;;-145.11;81.50
63033;BME280;49121;38.932;-9.018;2023-04-15T04:10:39;111992.50;;;-145.11;81.64
63033;BME280;49121;38.932;-9.018;2023-04-15T04:12:40;111992.50;;;-145.11;81.68
63033;BME280;49121;38.932;-9.018;2023-04-15T04:14:40;111992.50;;;-145.11;82.08
63033;BME280;49121;38.932;-9.018;2023-04-15T04:16:41;111992.50;;;-145.11;82.54
63033;BME280;49121;38.932;-9.018;2023-04-15T04:18:41;111992.50;;;-145.11;82.77
63033;BME280;49121;38.932;-9.018;2023-04-15T04:20:41;111992.50;;;-145.11;83.00
63033;BME280;49121;38.932;-9.018;2023-04-15T04:23:00;111992.50;;;-145.11;83.21
63033;BME280;49121;38.932;-9.018;2023-04-15T04:25:05;111992.50;;;-145.11;83.60
63033;BME280;49121;38.932;-9.018;2023-04-15T04:27:06;111992.50;;;-145.11;84.05
63033;BME280;49121;38.932;-9.018;2023-04-15T04:29:06;111992.50;;;-145.11;84.16
63033;BME280;49121;38.932;-9.018;2023-04-15T04:31:25;111992.50;;;-145.11;84.33
63033;BME280;49121;38.932;-9.018;2023-04-15T04:40:23;111992.50;;;-145.11;85.37
63033;BME280;49121;38.932;-9.018;2023-04-15T04:45:01;111992.50;;;-145.11;85.43
63033;BME280;49121;38.932;-9.018;2023-04-15T04:47:05;111992.50;;;-145.11;85.23
63033;BME280;49121;38.932;-9.018;2023-04-15T04:49:06;111992.50;;;-145.11;85.53
63033;BME280;49121;38.932;-9.018;2023-04-15T04:51:07;111992.50;;;-145.11;85.34
63033;BME280;49121;38.932;-9.018;2023-04-15T04:53:08;111992.50;;;-145.11;85.60
63033;BME280;49121;38.932;-9.018;2023-04-15T04:55:27;111992.50;;;-145.11;85.67
63033;BME280;49121;38.932;-9.018;2023-04-15T05:07:05;111992.50;;;-145.11;86.04
63033;BME280;49121;38.932;-9.018;2023-04-15T05:09:06;111992.50;;;-145.11;86.01
63033;BME280;49121;38.932;-9.018;2023-04-15T05:11:07;111992.50;;;-145.11;86.07
63033;BME280;49121;38.932;-9.018;2023-04-15T05:18:23;111992.50;;;-145.11;86.78
63033;BME280;49121;38.932;-9.018;2023-04-15T05:20:24;111992.50;;;-145.11;86.91
63033;BME280;49121;38.932;-9.018;2023-04-15T05:22:24;111992.50;;;-145.11;87.06
63033;BME280;49121;38.932;-9.018;2023-04-15T05:24:25;111992.50;;;-145.11;87.19
63033;BME280;49121;38.932;-9.018;2023-04-15T05:26:25;111992.50;;;-145.11;87.66
63033;BME280;49121;38.932;-9.018;2023-04-15T05:28:26;111992.50;;;-145.11;87.42
63033;BME280;49121;38.932;-9.018;2023-04-15T05:30:27;111992.50;;;-145.11;87.14
63033;BME280;49121;38.932;-9.018;2023-04-15T05:32:27;111992.50;;;-145.11;87.19
63033;BME280;49121;38.932;-9.018;2023-04-15T05:34:46;111992.50;;;-145.11;87.35
63033;BME280;49121;38.932;-9.018;2023-04-15T05:36:46;111992.50;;;-145.11;87.29
63033;BME280;49121;38.932;-9.018;2023-04-15T05:38:47;111992.50;;;-145.11;87.39
63033;BME280;49121;38.932;-9.018;2023-04-15T05:40:47;111992.50;;;-145.11;87.61
63033;BME280;49121;38.932;-9.018;2023-04-15T05:42:48;111992.50;;;-145.11;87.61
63033;BME280;49121;38.932;-9.018;2023-04-15T05:44:48;111992.50;;;-145.11;87.53
63033;BME280;49121;38.932;-9.018;2023-04-15T05:46:49;111992.50;;;-145.11;87.41
63033;BME280;49121;38.932;-9.018;2023-04-15T05:53:46;111992.50;;;-145.11;87.95
63033;BME280;49121;38.932;-9.018;2023-04-15T05:55:46;111992.50;;;-145.11;87.95
63033;BME280;49121;38.932;-9.018;2023-04-15T05:57:50;111992.50;;;-145.11;87.87
63033;BME280;49121;38.932;-9.018;2023-04-15T06:04:33;111992.50;;;-145.11;87.81
63033;BME280;49121;38.932;-9.018;2023-04-15T06:09:11;111992.50;;;-145.11;87.39
63033;BME280;49121;38.932;-9.018;2023-04-15T06:11:30;111992.50;;;-145.11;87.48
63033;BME280;49121;38.932;-9.018;2023-04-15T06:13:31;111992.50;;;-145.11;87.42
63033;BME280;49121;38.932;-9.018;2023-04-15T06:15:31;111992.50;;;-145.11;87.51
63033;BME280;49121;38.932;-9.018;2023-04-15T06:17:32;111992.50;;;-145.11;86.84
63033;BME280;49121;38.932;-9.018;2023-04-15T06:19:33;111992.50;;;-145.11;87.13
63033;BME280;49121;38.932;-9.018;2023-04-15T06:21:35;111992.50;;;-145.11;87.27
63033;BME280;49121;38.932;-9.018;2023-04-15T06:23:35;111992.50;;;-145.11;87.64
63033;BME280;49121;38.932;-9.018;2023-04-15T06:25:55;111992.50;;;-145.11;87.57
63033;BME280;49121;38.932;-9.018;2023-04-15T06:27:55;111992.50;;;-145.11;86.45
63033;BME280;49121;38.932;-9.018;2023-04-15T06:29:55;111992.50;;;-145.11;86.61
63033;BME280;49121;38.932;-9.018;2023-04-15T06:31:56;111992.50;;;-145.11;86.05
63033;BME280;49121;38.932;-9.018;2023-04-15T06:33:56;111992.50;;;-145.11;86.45
63033;BME280;49121;38.932;-9.018;2023-04-15T06:35:57;111992.50;;;-145.11;86.47
63033;BME280;49121;38.932;-9.018;2023-04-15T06:38:16;111992.50;;;-145.11;85.75
63033;BME280;49121;38.932;-9.018;2023-04-15T06:40:35;111992.50;;;-145.11;85.62
63033;BME280;49121;38.932;-9.018;2023-04-15T06:42:36;111992.50;;;-145.11;85.90
63033;BME280;49121;38.932;-9.018;2023-04-15T06:44:37;111992.50;;;-145.11;85.89
63033;BME280;49121;38.932;-9.018;2023-04-15T06:46:38;111992.50;;;-145.11;85.80
63033;BME280;49121;38.932;-9.018;2023-04-15T06:48:38;111992.50;;;-145.11;85.58
63033;BME280;49121;38.932;-9.018;2023-04-15T06:50:38;111992.50;;;-145.11;85.23
63033;BME280;49121;38.932;-9.018;2023-04-15T06:52:42;111992.50;;;-145.11;84.48
63033;BME280;49121;38.932;-9.018;2023-04-15T06:54:42;111992.50;;;-145.11;83.23
63033;BME280;49121;38.932;-9.018;2023-04-15T06:56:43;111992.50;;;-145.11;82.57
63033;BME280;49121;38.932;-9.018;2023-04-15T06:59:02;111992.50;;;-145.11;81.27
63033;BME280;49121;38.932;-9.018;2023-04-15T07:01:02;111992.50;;;-145.11;81.46
63033;BME280;49121;38.932;-9.018;2023-04-15T07:03:22;111992.50;;;-145.11;81.17
63033;BME280;49121;38.932;-9.018;2023-04-15T07:05:40;111992.50;;;-145.11;77.68
63033;BME280;49121;38.932;-9.018;2023-04-15T07:07:41;111992.50;;;-145.11;74.71
63033;BME280;49121;38.932;-9.018;2023-04-15T07:09:45;111992.50;;;-145.11;73.55
63033;BME280;49121;38.932;-9.018;2023-04-15T07:11:46;111992.50;;;-145.11;74.38
63033;BME280;49121;38.932;-9.018;2023-04-15T07:13:49;111992.50;;;-145.11;73.78
63033;BME280;49121;38.932;-9.018;2023-04-15T07:15:50;111992.50;;;-145.11;72.29
63033;BME280;49121;38.932;-9.018;2023-04-15T07:17:50;111992.50;;;-145.11;71.44
63033;BME280;49121;38.932;-9.018;2023-04-15T07:19:51;111992.50;;;-145.11;69.64
63033;BME280;49121;38.932;-9.018;2023-04-15T07:21:51;111992.50;;;-145.11;66.30
63033;BME280;49121;38.932;-9.018;2023-04-15T07:23:51;111992.50;;;-145.11;63.02
63033;BME280;49121;38.932;-9.018;2023-04-15T07:25:52;111992.50;;;-145.11;58.10
63033;BME280;49121;38.932;-9.018;2023-04-15T07:30:35;111992.50;;;-145.11;56.10
63033;BME280;49121;38.932;-9.018;2023-04-15T07:32:36;111992.50;;;-145.11;57.00
63033;BME280;49121;38.932;-9.018;2023-04-15T07:34:36;111992.50;;;-145.11;57.56
63033;BME280;49121;38.932;-9.018;2023-04-15T07:36:37;111992.50;;;-145.11;60.38
63033;BME280;49121;38.932;-9.018;2023-04-15T07:38:38;111992.50;;;-145.11;59.42
63033;BME280;49121;38.932;-9.018;2023-04-15T07:40:39;111992.50;;;-145.11;58.88
63033;BME280;49121;38.932;-9.018;2023-04-15T07:42:39;111992.50;;;-145.11;58.94
63033;BME280;49121;38.932;-9.018;2023-04-15T07:47:17;111992.50;;;-145.11;52.21
63033;BME280;49121;38.932;-9.018;2023-04-15T07:49:36;111992.50;;;-145.11;51.44
63033;BME280;49121;38.932;-9.018;2023-04-15T07:51:37;111992.50;;;-145.11;47.84
63033;BME280;49121;38.932;-9.018;2023-04-15T07:58:42;111992.50;;;-145.11;50.51
63033;BME280;49121;38.932;-9.018;2023-04-15T08:00:42;111992.50;;;-145.11;48.49
63033;BME280;49121;38.932;-9.018;2023-04-15T08:02:43;111992.50;;;-145.11;48.04
63033;BME280;49121;38.932;-9.018;2023-04-15T08:04:43;111992.50;;;-145.11;47.72
63033;BME280;49121;38.932;-9.018;2023-04-15T08:09:04;111992.50;;;-145.11;50.30
63033;BME280;49121;38.932;-9.018;2023-04-15T08:15:43;111992.50;;;-145.11;51.80
63033;BME280;49121;38.932;-9.018;2023-04-15T08:17:43;111992.50;;;-145.11;49.51
63033;BME280;49121;38.932;-9.018;2023-04-15T08:19:44;111992.50;;;-145.11;48.00
63033;BME280;49121;38.932;-9.018;2023-04-15T08:21:45;111992.50;;;-145.11;47.76
63033;BME280;49121;38.932;-9.018;2023-04-15T08:23:50;111992.50;;;-145.11;46.26
63033;BME280;49121;38.932;-9.018;2023-04-15T08:25:51;111992.50;;;-145.11;47.21
63033;BME280;49121;38.932;-9.018;2023-04-15T08:27:53;111992.50;;;-145.11;48.35
63033;BME280;49121;38.932;-9.018;2023-04-15T08:29:54;111992.50;;;-145.11;46.60
63033;BME280;49121;38.932;-9.018;2023-04-15T08:31:54;111992.50;;;-145.11;46.64
63033;BME280;49121;38.932;-9.018;2023-04-15T08:33:56;111992.50;;;-145.11;44.73
63033;BME280;49121;38.932;-9.018;2023-04-15T08:35:56;111992.50;;;-145.11;44.16
63033;BME280;49121;38.932;-9.018;2023-04-15T08:37:57;111992.50;;;-145.11;44.03
63033;BME280;49121;38.932;-9.018;2023-04-15T08:39:58;111992.50;;;-145.11;44.87
63033;BME280;49121;38.932;-9.018;2023-04-15T08:42:01;111992.50;;;-145.11;43.16
63033;BME280;49121;38.932;-9.018;2023-04-15T08:44:07;111992.50;;;-145.11;42.34
63033;BME280;49121;38.932;-9.018;2023-04-15T08:46:07;111992.50;;;-145.11;41.50
63033;BME280;49121;38.932;-9.018;2023-04-15T08:48:31;111992.50;;;-145.11;40.18
63033;BME280;49121;38.932;-9.018;2023-04-15T08:55:49;111992.50;;;-145.11;41.17
63033;BME280;49121;38.932;-9.018;2023-04-15T08:58:09;111992.50;;;-145.11;40.55
63033;BME280;49121;38.932;-9.018;2023-04-15T09:00:10;111992.50;;;-145.11;39.58
63033;BME280;49121;38.932;-9.018;2023-04-15T09:02:11;111992.50;;;-145.11;39.17
63033;BME280;49121;38.932;-9.018;2023-04-15T09:04:12;111992.50;;;-145.11;38.82
63033;BME280;49121;38.932;-9.018;2023-04-15T09:06:13;111992.50;;;-145.11;39.50
63033;BME280;49121;38.932;-9.018;2023-04-15T09:08:15;111992.50;;;-145.11;39.21
63033;BME280;49121;38.932;-9.018;2023-04-15T09:12:53;111992.50;;;-145.11;40.30
63033;BME280;49121;38.932;-9.018;2023-04-15T09:14:54;111992.50;;;-145.11;39.98
63033;BME280;49121;38.932;-9.018;2023-04-15T09:16:55;111992.50;;;-145.11;39.66
63033;BME280;49121;38.932;-9.018;2023-04-15T09:18:55;111992.50;;;-145.11;37.08
63033;BME280;49121;38.932;-9.018;2023-04-15T09:21:02;111992.50;;;-145.11;37.56
63033;BME280;49121;38.932;-9.018;2023-04-15T09:23:10;111992.50;;;-145.11;37.34
63033;BME280;49121;38.932;-9.018;2023-04-15T09:27:15;111992.50;;;-145.11;36.47
63033;BME280;49121;38.932;-9.018;2023-04-15T09:29:16;111992.50;;;-145.11;35.51
63033;BME280;49121;38.932;-9.018;2023-04-15T09:36:53;111992.50;;;-145.11;35.07
63033;BME280;49121;38.932;-9.018;2023-04-15T09:38:55;111992.50;;;-145.11;35.26
63033;BME280;49121;38.932;-9.018;2023-04-15T09:41:18;111992.50;;;-145.11;34.61
63033;BME280;49121;38.932;-9.018;2023-04-15T09:43:37;111992.50;;;-145.11;34.75
63033;BME280;49121;38.932;-9.018;2023-04-15T09:53:15;111992.50;;;-145.11;34.72
63033;BME280;49121;38.932;-9.018;2023-04-15T09:55:35;111992.50;;;-145.11;34.50
63033;BME280;49121;38.932;-9.018;2023-04-15T09:57:36;111992.50;;;-145.11;34.82
63033;BME280;49121;38.932;-9.018;2023-04-15T09:59:36;111992.50;;;-145.11;32.79
63033;BME280;49121;38.932;-9.018;2023-04-15T10:01:37;111992.50;;;-145.11;32.69
63033;BME280;49121;38.932;-9.018;2023-04-15T10:03:40;111992.50;;;-145.11;30.25
63033;BME280;49121;38.932;-9.018;2023-04-15T10:05:41;111992.50;;;-145.11;30.01
63033;BME280;49121;38.932;-9.018;2023-04-15T10:08:00;111992.50;;;-145.11;30.26
63033;BME280;49121;38.932;-9.018;2023-04-15T10:10:01;111992.50;;;-145.11;30.74
63033;BME280;49121;38.932;-9.018;2023-04-15T10:14:22;111992.50;;;-145.11;30.82
63033;BME280;49121;38.932;-9.018;2023-04-15T10:16:25;111992.50;;;-145.11;31.33
63033;BME280;49121;38.932;-9.018;2023-04-15T10:18:42;111992.50;;;-145.11;31.14
63033;BME280;49121;38.932;-9.018;2023-04-15T10:20:43;111992.50;;;-145.11;31.76
63033;BME280;49121;38.932;-9.018;2023-04-15T10:22:44;111992.50;;;-145.11;32.82
63033;BME280;49121;38.932;-9.018;2023-04-15T10:24:45;111992.50;;;-145.11;33.76
63033;BME280;49121;38.932;-9.018;2023-04-15T10:26:46;111992.50;;;-145.11;33.94
63033;BME280;49121;38.932;-9.018;2023-04-15T10:28:47;111992.50;;;-145.11;34.75
63033;BME280;49121;38.932;-9.018;2023-04-15T10:35:31;111992.50;;;-145.11;35.32
63033;BME280;49121;38.932;-9.018;2023-04-15T10:37:36;111992.50;;;-145.11;35.25
63033;BME280;49121;38.932;-9.018;2023-04-15T10:39:41;111992.50;;;-145.11;35.77
63033;BME280;49121;38.932;-9.018;2023-04-15T10:41:42;111992.50;;;-145.11;36.37
63033;BME280;49121;38.932;-9.018;2023-04-15T10:46:40;111992.50;;;-145.11;36.04
63033;BME280;49121;38.932;-9.018;2023-04-15T10:48:45;111992.50;;;-145.11;36.71
63033;BME280;49121;38.932;-9.018;2023-04-15T10:50:55;111992.50;;;-145.11;36.44
63033;BME280;49121;38.932;-9.018;2023-04-15T10:52:56;111992.50;;;-145.11;37.14
63033;BME280;49121;38.932;-9.018;2023-04-15T10:57:20;111992.50;;;-145.11;36.25
63033;BME280;49121;38.932;-9.018;2023-04-15T10:59:21;111992.50;;;-145.11;35.89
63033;BME280;49121;38.932;-9.018;2023-04-15T11:01:53;111992.50;;;-145.11;35.93
63033;BME280;49121;38.932;-9.018;2023-04-15T11:03:54;111992.50;;;-145.11;36.44
63033;BME280;49121;38.932;-9.018;2023-04-15T11:05:54;111992.50;;;-145.11;36.34
63033;BME280;49121;38.932;-9.018;2023-04-15T11:07:56;111992.50;;;-145.11;36.59
63033;BME280;49121;38.932;-9.018;2023-04-15T11:14:53;111992.50;;;-145.11;35.50
63033;BME280;49121;38.932;-9.018;2023-04-15T11:16:54;111992.50;;;-145.11;36.04
63033;BME280;49121;38.932;-9.018;2023-04-15T11:18:55;111992.50;;;-145.11;35.64
63033;BME280;49121;38.932;-9.018;2023-04-15T11:21:03;111992.50;;;-145.11;35.52
63033;BME280;49121;38.932;-9.018;2023-04-15T11:23:08;111992.50;;;-145.11;36.06
63033;BME280;49121;38.932;-9.018;2023-04-15T11:25:08;111992.50;;;-145.11;35.52
63033;BME280;49121;38.932;-9.018;2023-04-15T11:27:09;111992.50;;;-145.11;35.64
63033;BME280;49121;38.932;-9.018;2023-04-15T11:29:16;111992.50;;;-145.11;35.87
63033;BME280;49121;38.932;-9.018;2023-04-15T11:38:32;111992.50;;;-145.11;36.17
63033;BME280;49121;38.932;-9.018;2023-04-15T11:40:33;111992.50;;;-145.11;36.11
63033;BME280;49121;38.932;-9.018;2023-04-15T11:42:34;111992.50;;;-145.11;36.65
63033;BME280;49121;38.932;-9.018;2023-04-15T11:44:35;111992.50;;;-145.11;35.93
63033;BME280;49121;38.932;-9.018;2023-04-15T11:46:35;111992.50;;;-145.11;35.43
63033;BME280;49121;38.932;-9.018;2023-04-15T11:48:40;111992.50;;;-145.11;35.58
63033;BME280;49121;38.932;-9.018;2023-04-15T11:50:41;111992.50;;;-145.11;35.47
63033;BME280;49121;38.932;-9.018;2023-04-15T11:52:57;111992.50;;;-145.11;35.85
63033;BME280;49121;38.932;-9.018;2023-04-15T11:57:17;111992.50;;;-145.11;35.12
63033;BME280;49121;38.932;-9.018;2023-04-15T11:59:42;111992.50;;;-145.11;35.04
63033;BME280;49121;38.932;-9.018;2023-04-15T12:04:20;111992.50;;;-145.11;35.02
63033;BME280;49121;38.932;-9.018;2023-04-15T12:06:23;111992.50;;;-145.11;35.24
63033;BME280;49121;38.932;-9.018;2023-04-15T12:10:57;111992.50;;;-145.11;35.01
63033;BME280;49121;38.932;-9.018;2023-04-15T12:12:58;111992.50;;;-145.11;35.00
63033;BME280;49121;38.932;-9.018;2023-04-15T12:14:58;111992.50;;;-145.11;35.08
63033;BME280;49121;38.932;-9.018;2023-04-15T12:17:00;111992.50;;;-145.11;35.28
63033;BME280;49121;38.932;-9.018;2023-04-15T12:19:04;111992.50;;;-145.11;35.00
63033;BME280;49121;38.932;-9.018;2023-04-15T12:21:09;111992.50;;;-145.11;34.84
63033;BME280;49121;38.932;-9.018;2023-04-15T12:23:09;111992.50;;;-145.11;35.47
63033;BME280;49121;38.932;-9.018;2023-04-15T12:25:10;111992.50;;;-145.11;35.94
63033;BME280;49121;38.932;-9.018;2023-04-15T12:27:11;111992.50;;;-145.11;35.58
63033;BME280;49121;38.932;-9.018;2023-04-15T12:29:13;111992.50;;;-145.11;35.55
63033;BME280;49121;38.932;-9.018;2023-04-15T12:31:13;111992.50;;;-145.11;35.46
63033;BME280;49121;38.932;-9.018;2023-04-15T12:33:14;111992.50;;;-145.11;35.18
63033;BME280;49121;38.932;-9.018;2023-04-15T12:35:33;111992.50;;;-145.11;34.51
63033;BME280;49121;38.932;-9.018;2023-04-15T12:37:52;111992.50;;;-145.11;34.92
63033;BME280;49121;38.932;-9.018;2023-04-15T12:39:52;111992.50;;;-145.11;34.47
63033;BME280;49121;38.932;-9.018;2023-04-15T12:41:53;111992.50;;;-145.11;34.57
63033;BME280;49121;38.932;-9.018;2023-04-15T12:44:12;111992.50;;;-145.11;35.29